Date,TemperatureHighF,TemperatureAvgF,TemperatureLowF,DewpointHighF,DewpointAvgF,DewpointLowF,HumidityHigh,HumidityAvg,HumidityLow,PressureMaxIn,PressureMinIn,WindSpeedMaxMPH,WindSpeedAvgMPH,GustSpeedMaxMPH,PrecipitationSumIn
2013-6-6,62.4,58.5,54.1,61.7,55.5,48.5,99,90,64,29.96,29.82,2,0,4,0.37
2013-6-7,60.3,55.9,54.1,56.7,54.5,53.3,99,95,84,29.90,29.85,2,0,3,0.01
2013-6-8,69.8,61.1,56.1,56.0,54.1,51.1,98,79,56,30.11,29.90,2,0,4,0.00
2013-6-9,80.1,69.0,56.7,59.8,56.1,51.2,83,65,45,30.15,30.01,7,2,13,0.00
2013-6-10,73.8,68.9,64.6,69.3,65.2,59.6,98,89,64,29.99,29.77,7,2,11,0.18
2013-6-11,75.6,68.7,64.0,65.5,63.2,60.8,98,84,62,29.92,29.78,4,1,8,0.00
2013-6-12,78.8,72.4,65.1,69.5,66.3,63.0,95,81,61,29.95,29.72,5,1,8,0.00
2013-6-13,71.6,64.8,60.4,68.3,61.0,56.4,99,88,65,29.89,29.50,8,2,13,0.37
2013-6-14,70.3,62.0,55.4,59.7,55.7,51.3,96,81,57,30.10,29.88,4,0,6,0.00
2013-6-15,82.6,66.5,50.5,62.4,53.4,46.3,99,68,33,30.15,30.00,8,1,13,0.00
2013-6-16,80.8,72.2,64.4,67.9,63.9,58.2,99,76,62,30.00,29.86,11,2,14,0.09
2013-6-17,86.5,72.9,62.8,68.6,63.0,57.8,99,74,49,29.98,29.91,8,1,14,0.00
2013-6-18,77.2,67.3,57.9,63.1,57.4,49.2,86,71,57,30.06,29.89,8,2,13,0.00
2013-6-19,75.7,64.1,53.8,54.2,49.3,44.3,95,61,41,30.20,30.05,5,1,8,0.00
2013-6-20,81.5,68.7,55.9,56.7,47.1,35.8,74,49,23,30.25,30.18,4,1,8,0.00
2013-6-21,88.2,74.3,60.8,61.0,55.3,46.9,66,52,39,30.27,30.16,9,2,12,0.00
2013-6-22,90.9,80.3,70.2,69.5,64.9,58.8,73,60,49,30.18,30.05,10,3,15,0.00
2013-6-23,92.7,82.2,71.8,68.9,66.5,62.0,84,61,40,30.14,30.04,11,2,16,0.00
2013-6-24,91.8,80.9,70.5,69.2,65.0,61.7,77,60,41,30.14,30.00,10,2,17,0.00
2013-6-25,91.8,76.7,68.2,72.6,68.4,64.3,99,77,44,30.03,29.87,10,2,16,0.67
2013-6-26,84.9,74.5,66.7,72.3,68.1,65.9,99,82,59,29.95,29.81,6,1,8,0.31
2013-6-27,81.3,71.8,68.4,70.6,68.5,65.1,99,90,63,29.83,29.68,5,1,8,0.30
2013-6-28,79.7,70.7,65.5,69.1,65.3,58.7,99,84,64,29.68,29.55,6,1,8,0.00
2013-6-29,79.9,68.9,63.1,69.0,64.1,61.8,99,85,64,29.74,29.56,4,0,5,0.30
2013-6-30,75.2,68.8,64.0,66.3,63.4,59.8,99,83,66,29.93,29.73,5,1,10,0.01
2013-7-1,72.3,67.5,63.9,67.5,64.9,62.3,99,92,78,30.03,29.88,5,1,11,0.07
2013-7-2,81.5,70.1,63.1,68.4,64.8,61.8,97,84,63,30.09,29.98,5,1,8,0.00
2013-7-3,89.1,75.7,67.8,72.1,68.7,64.5,96,80,49,30.15,30.07,13,2,15,0.00
2013-7-4,81.7,74.4,68.5,71.4,68.7,65.4,99,83,65,30.20,30.14,11,2,15,0.09
2013-7-5,78.3,73.1,69.1,71.4,69.0,67.0,99,88,73,30.17,30.11,8,1,17,0.25
2013-7-6,86.9,75.6,69.3,72.8,69.4,66.4,98,83,57,30.18,30.03,8,1,13,0.37
2013-7-7,80.8,73.7,68.5,71.1,67.3,62.3,98,81,57,30.11,30.02,10,1,13,0.06
2013-7-8,87.8,74.1,65.3,71.9,67.8,64.6,99,83,52,30.12,30.04,8,2,14,0.30
2013-7-9,86.4,75.3,68.9,76.2,71.9,68.3,99,90,69,30.08,29.96,8,2,14,0.11
2013-7-10,86.5,73.2,68.4,77.8,70.8,66.4,99,93,75,29.98,29.79,8,2,13,0.96
2013-7-11,77.4,69.7,62.4,69.0,60.7,53.1,99,75,48,30.06,29.94,4,1,6,0.00
2013-7-12,82.2,70.2,59.0,67.8,62.6,58.0,99,78,51,30.15,30.06,5,1,9,0.00
2013-7-13,87.3,75.2,63.9,70.9,64.7,60.1,90,71,49,30.25,30.13,10,1,11,0.00
2013-7-14,89.8,79.6,71.1,74.2,70.1,66.6,89,74,53,30.29,30.23,11,1,14,0.00
2013-7-15,93.6,82.8,74.8,73.3,71.3,67.1,88,70,47,30.35,30.28,4,1,7,0.00
2013-7-16,91.9,82.7,75.0,76.9,74.2,71.3,96,77,58,30.34,30.28,5,1,6,0.00
2013-7-17,94.5,83.9,76.5,76.6,73.4,68.4,93,73,50,30.32,30.19,5,1,9,0.00
2013-7-18,95.0,84.9,76.6,77.1,74.0,67.9,95,72,48,30.20,30.03,4,1,9,0.00
2013-7-19,94.8,84.7,73.6,75.5,73.1,69.8,89,69,48,30.04,29.84,10,2,16,0.00
2013-7-20,79.0,72.5,67.5,73.5,70.3,67.2,99,93,77,29.95,29.80,8,1,11,2.02
2013-7-21,86.2,75.1,68.4,71.5,67.8,63.7,99,80,54,30.01,29.93,5,1,7,0.00
2013-7-22,77.5,70.5,64.6,73.5,67.2,61.9,99,90,77,30.00,29.80,4,0,6,0.09
2013-7-23,82.6,71.8,64.4,73.8,67.1,60.9,99,86,62,29.84,29.68,8,1,15,0.57
2013-7-24,70.9,64.9,57.4,61.2,54.3,50.5,88,69,55,30.05,29.84,6,2,11,0.00
2013-7-25,80.6,66.4,57.2,55.3,51.3,45.6,89,60,38,30.12,30.05,8,1,14,0.00
2013-7-26,83.1,69.8,57.0,62.3,57.0,51.0,93,66,38,30.12,29.98,10,1,13,0.00
2013-7-27,71.4,67.5,63.3,66.3,63.0,57.6,99,86,64,29.99,29.82,9,2,14,0.18
2013-7-28,72.7,64.6,55.8,64.2,54.0,43.4,98,71,44,30.03,29.87,11,2,18,0.04
2013-7-29,71.6,63.8,56.7,60.7,55.5,49.4,97,76,47,30.21,30.02,8,1,11,0.00
2013-7-30,79.2,67.5,56.8,61.9,58.6,53.7,99,76,47,30.25,30.17,4,1,7,0.00
2013-7-31,78.8,71.0,64.0,65.7,62.1,59.4,88,74,57,30.18,29.94,49,3,49,0.00
2013-8-1,79.3,70.5,64.6,68.3,64.1,57.9,99,81,58,29.95,29.87,10,1,17,0.21
2013-8-2,77.4,68.1,61.0,67.0,60.6,54.3,99,79,49,30.00,29.90,11,2,18,0.71
2013-8-3,80.2,70.8,63.1,69.0,61.8,51.5,99,76,42,30.03,29.93,4,1,7,0.00
2013-8-4,73.6,66.8,62.1,62.6,56.4,49.4,90,70,54,30.15,30.02,5,1,9,0.00
2013-8-5,75.0,65.0,53.6,56.7,53.2,48.2,96,67,43,30.15,30.02,6,0,8,0.00
2013-8-6,79.5,70.5,62.2,61.9,58.3,54.8,84,67,48,30.04,29.97,11,2,13,0.00
2013-8-7,79.0,71.8,66.0,72.8,66.2,60.5,99,83,72,30.03,29.90,11,3,14,0.87
2013-8-8,83.5,74.5,70.3,75.2,71.0,66.3,98,89,74,29.99,29.94,7,1,11,0.00
2013-8-9,77.7,69.8,65.3,68.7,62.9,50.6,99,81,45,30.04,29.93,4,0,7,1.11
2013-8-10,78.8,69.5,61.7,65.7,58.3,52.0,97,69,48,30.14,30.04,4,0,7,0.00
2013-8-11,83.8,71.7,63.3,61.7,57.9,53.7,86,64,40,30.16,30.06,8,1,11,0.00
2013-8-12,74.7,69.5,65.1,67.2,61.8,59.8,88,77,67,30.10,30.05,3,1,5,0.00
2013-8-13,73.0,65.7,60.4,68.1,59.2,47.1,99,81,56,30.01,29.83,8,1,11,0.05
2013-8-14,70.5,62.1,56.5,55.6,52.1,47.3,90,71,50,30.17,30.01,5,1,8,0.00
2013-8-15,75.4,63.6,54.1,55.8,52.7,45.2,95,70,40,30.20,30.14,8,1,9,0.00
2013-8-16,78.1,65.4,55.0,57.9,54.8,48.2,97,72,44,30.22,30.15,4,0,8,0.00
2013-8-17,82.4,69.1,57.2,61.1,57.0,53.4,97,69,41,30.26,30.21,8,1,13,0.00
2013-8-18,81.0,69.6,59.9,65.8,60.8,56.3,90,75,48,30.24,30.14,0,0,0,0.00
2013-8-19,81.9,70.9,61.9,69.6,62.2,54.0,99,77,42,30.16,30.10,0,0,0,0.00
2013-8-20,87.4,74.8,65.3,64.5,60.7,57.4,86,64,41,30.20,30.11,0,0,0,0.00
2013-8-21,90.0,76.6,66.9,67.2,63.4,58.1,86,66,39,30.21,30.06,0,0,0,0.00
2013-8-22,84.9,74.7,68.2,73.0,68.6,65.6,98,82,60,30.11,30.01,0,0,0,0.14
2013-8-23,84.6,73.9,63.3,71.9,60.9,45.1,99,68,30,30.22,30.04,0,0,0,0.01
2013-8-24,85.1,71.1,61.2,61.2,55.4,47.5,84,60,32,30.34,30.21,0,0,0,0.00
2013-8-25,87.8,74.4,62.2,63.3,59.4,56.8,86,62,40,30.35,30.22,8,1,12,0.00
2013-8-26,88.7,78.2,68.2,69.1,62.9,58.3,76,61,44,30.24,30.03,8,2,14,0.00
2013-8-27,83.3,76.4,69.8,75.7,72.3,68.9,99,88,71,30.06,29.92,6,1,11,1.19
2013-8-28,77.0,74.0,70.7,75.8,72.9,70.1,99,96,89,30.01,29.84,6,1,11,0.11
2013-8-29,85.5,76.0,69.6,73.7,69.9,65.6,99,83,60,30.09,30.00,5,0,8,0.00
2013-8-30,89.8,77.6,67.5,71.8,68.0,63.8,99,75,47,30.05,29.83,10,1,15,0.00
2013-8-31,84.6,75.7,69.6,73.1,70.5,68.2,99,85,68,29.88,29.76,5,1,9,0.00
2013-9-1,84.2,73.4,68.7,75.3,70.9,66.6,99,93,65,29.87,29.78,9,1,11,0.31
2013-9-2,79.5,71.5,67.1,73.2,68.1,60.4,99,89,69,29.89,29.77,4,1,8,0.02
2013-9-3,67.8,63.1,58.5,60.5,57.0,53.8,92,81,70,30.05,29.89,4,1,9,0.00
2013-9-4,79.7,67.2,55.6,61.9,58.0,55.1,99,75,50,30.12,30.05,7,1,10,0.00
2013-9-5,71.1,66.1,55.2,66.2,55.0,45.4,90,68,44,30.25,30.07,5,1,8,0.00
2013-9-6,77.5,62.1,51.1,55.1,50.6,39.8,99,69,30,30.28,30.13,8,1,8,0.00
2013-9-7,81.9,70.0,57.9,68.0,57.0,48.8,82,64,43,30.13,29.95,8,1,10,0.00
2013-9-8,77.4,69.5,59.9,69.4,62.0,49.7,98,78,58,30.09,29.93,8,1,10,0.00
2013-9-9,80.4,69.1,57.7,72.0,62.0,49.7,88,78,70,30.09,29.99,9,3,15,0.00
2013-9-10,97.0,85.0,74.8,75.6,71.2,65.7,88,66,39,30.11,30.00,11,3,16,0.00
2013-9-11,94.5,83.4,75.2,77.5,70.9,64.7,98,68,41,30.14,29.99,9,2,15,0.09
2013-9-12,75.2,70.2,57.7,70.6,66.3,57.3,99,88,62,30.01,29.83,11,1,14,0.67
2013-9-13,61.7,57.8,54.0,60.0,52.5,42.7,99,83,64,30.08,29.90,7,1,11,0.11
2013-9-14,66.0,56.2,47.8,51.4,46.2,41.0,96,71,50,30.17,30.07,4,1,7,0.00
2013-9-15,69.3,59.8,51.6,59.7,50.8,47.1,99,74,48,30.16,30.06,8,1,13,0.05
2013-9-16,68.0,58.9,51.6,59.1,54.5,49.5,99,86,66,30.33,30.11,5,1,11,0.00
2013-9-17,71.2,57.5,43.5,51.6,43.3,33.5,99,64,28,30.40,30.24,9,2,14,0.00
2013-9-18,79.5,63.8,53.2,61.1,52.0,42.7,91,67,44,30.25,30.09,11,2,14,0.00
2013-9-19,78.4,68.5,60.3,67.9,64.5,59.8,99,88,67,30.12,30.00,14,3,19,0.00
2013-9-20,82.8,72.8,66.2,72.0,68.8,65.7,99,88,70,30.02,29.80,14,4,23,0.37
2013-9-21,69.1,63.5,56.3,68.8,62.0,54.6,99,95,76,29.83,29.69,4,1,10,1.20
2013-9-22,61.0,56.0,53.4,55.2,47.8,42.3,97,74,58,30.06,29.83,5,1,9,0.01
2013-9-23,60.4,53.8,46.6,48.0,46.3,43.5,98,76,58,30.17,30.05,5,0,8,0.01
2013-9-24,68.5,54.2,42.3,53.5,48.0,42.0,99,81,52,30.14,30.00,7,1,11,0.00
2013-9-25,75.0,59.7,47.8,57.9,49.8,40.3,99,73,36,30.01,29.93,8,1,11,0.00
2013-9-26,75.0,61.3,48.6,56.8,50.6,43.7,99,71,41,30.14,29.98,4,1,7,0.00
2013-9-27,77.0,63.0,54.9,57.2,54.0,48.3,94,75,44,30.23,30.13,7,1,11,0.00
2013-9-28,78.1,65.5,56.1,57.5,54.8,49.7,94,71,45,30.23,30.11,11,2,14,0.00
2013-9-29,72.5,64.4,56.5,63.0,57.6,52.7,97,80,63,30.12,30.00,11,3,18,0.02
2013-9-30,65.7,62.5,61.0,63.9,61.6,60.2,98,97,90,30.03,29.98,7,1,10,0.09
2013-10-1,77.9,66.7,57.4,64.4,60.2,57.1,99,82,55,30.09,29.99,9,1,17,0.00
2013-10-2,77.0,67.6,61.0,67.2,63.0,57.4,96,85,70,30.11,30.02,6,0,10,0.00
2013-10-3,81.0,70.5,61.0,69.8,63.3,51.1,94,78,58,30.10,30.01,8,2,12,0.00
2013-10-4,81.0,72.1,67.1,70.2,67.2,64.7,99,85,62,30.08,30.03,6,1,15,0.00
2013-10-5,79.2,70.2,66.7,71.4,68.4,65.8,99,95,68,30.08,29.96,11,1,15,0.44
2013-10-6,78.3,71.1,55.2,69.8,67.2,54.4,99,88,66,29.96,29.70,15,4,24,0.56
2013-10-7,59.7,54.2,47.3,55.7,47.8,42.5,99,80,57,30.13,29.74,10,2,18,0.70
2013-10-8,70.5,56.8,46.4,53.0,47.5,38.1,99,74,37,30.30,30.13,7,1,9,0.00
2013-10-9,69.3,57.4,46.9,49.4,44.7,38.1,96,66,34,30.33,30.23,10,1,14,0.00
2013-10-10,65.7,55.9,46.4,53.8,45.2,37.3,93,69,43,30.25,30.11,10,1,14,0.00
2013-10-11,75.2,58.4,46.0,57.7,50.8,45.2,99,78,38,30.14,30.07,4,0,7,0.00
2013-10-12,77.2,64.9,54.9,64.8,55.8,41.8,95,73,56,30.14,30.08,8,1,13,0.00
2013-10-13,67.8,63.3,56.7,63.6,60.7,56.0,99,91,84,30.31,30.14,11,1,14,0.05
2013-10-14,66.6,56.1,49.1,58.5,48.9,43.0,99,78,54,30.37,30.26,6,1,9,0.00
2013-10-15,64.0,57.5,46.0,62.0,55.1,43.8,99,92,77,30.26,29.94,10,2,15,0.02
2013-10-16,69.8,60.9,50.9,65.4,58.3,48.2,99,92,71,29.95,29.81,11,2,16,0.99
2013-10-17,63.5,50.6,44.6,51.7,47.8,42.7,99,91,54,29.93,29.78,8,1,12,0.19
2013-10-18,63.5,53.8,44.8,47.1,45.0,41.1,95,74,47,29.97,29.86,12,2,17,0.00
2013-10-19,54.0,46.6,42.3,46.5,44.3,40.8,99,92,71,29.92,29.75,8,1,14,0.34
2013-10-20,60.3,49.9,41.7,42.5,39.6,37.3,92,69,45,29.97,29.89,12,2,17,0.00
2013-10-21,64.9,55.0,49.1,53.5,43.2,39.2,99,67,41,29.96,29.83,14,4,20,0.17
2013-10-22,50.5,44.6,38.3,49.0,33.7,26.1,99,67,46,29.96,29.85,9,1,11,0.04
2013-10-23,46.8,40.7,33.3,42.8,34.8,27.7,99,81,53,29.92,29.77,5,1,10,0.46
2013-10-24,43.3,34.8,32.4,40.2,34.1,32.1,99,97,87,30.12,29.89,7,1,11,0.80
2013-10-25,46.9,39.2,33.8,42.0,33.4,26.1,99,82,50,30.31,30.11,8,1,11,0.50
2013-10-26,46.2,41.8,37.2,42.1,29.9,25.3,99,63,51,30.18,29.84,20,3,25,0.02
2013-10-27,50.9,43.7,37.0,38.7,35.1,29.1,98,73,50,30.08,29.96,5,1,9,0.00
2013-10-28,57.4,45.6,35.1,43.6,38.4,33.2,94,77,54,30.33,30.06,4,1,6,0.00
2013-10-29,58.8,45.8,35.2,40.7,37.2,31.8,97,74,43,30.39,30.24,7,0,8,0.00
2013-10-30,68.4,55.2,43.7,54.4,43.8,36.8,87,67,45,30.24,30.03,12,2,14,0.00
2013-10-31,66.2,61.3,58.3,61.1,58.8,54.4,99,92,76,30.03,29.30,25,6,34,0.34
2013-11-1,61.5,53.5,47.5,60.0,48.0,41.6,99,82,68,29.70,29.24,21,3,30,0.24
2013-11-2,47.5,45.7,43.0,46.7,43.9,40.3,99,93,83,30.02,29.67,6,1,10,0.86
2013-11-3,49.6,39.9,32.7,40.5,32.5,23.3,99,76,55,30.45,30.01,7,1,9,0.00
2013-11-4,46.6,38.4,31.8,25.0,20.5,14.6,70,50,29,30.49,30.35,13,5,20,0.00
2013-11-5,59.7,51.4,43.2,42.4,35.4,24.8,62,54,48,30.41,30.25,11,3,15,0.00
2013-11-6,65.5,55.8,48.4,58.4,44.7,33.3,99,68,50,30.26,29.90,16,4,22,0.20
2013-11-7,48.6,42.0,37.0,48.3,36.0,25.6,99,81,54,30.11,29.94,13,2,20,0.50
2013-11-8,45.9,38.3,33.4,35.1,27.6,22.5,98,66,48,30.27,30.07,10,2,14,0.12
2013-11-9,58.3,46.7,33.8,41.2,31.4,25.1,71,56,37,30.23,29.86,18,4,28,0.00
2013-11-10,52.9,45.4,38.7,40.2,32.1,24.8,74,60,48,30.26,29.92,12,3,23,0.00
2013-11-11,47.5,39.2,29.3,41.0,31.2,27.3,99,75,47,30.25,30.01,15,2,22,0.30
2013-11-12,41.5,31.5,28.0,29.1,22.0,13.3,99,69,45,30.46,30.20,10,2,15,0.01
2013-11-13,38.7,32.6,27.3,22.4,16.6,10.8,68,52,37,30.49,30.24,13,3,18,0.02
2013-11-14,51.1,40.7,30.0,20.4,14.9,12.2,60,37,23,30.24,30.07,14,4,21,0.04
2013-11-15,53.8,46.7,38.7,31.2,20.9,13.5,54,36,25,30.12,30.05,15,3,21,0.00
2013-11-16,60.1,51.4,42.4,50.7,42.5,29.9,81,72,53,30.17,29.91,15,5,24,0.00
2013-11-17,62.6,58.9,51.6,58.3,53.1,39.3,97,82,58,29.91,29.42,23,8,36,0.51
2013-11-18,51.6,43.5,35.8,39.8,33.0,21.2,76,66,55,30.09,29.57,14,5,26,0.00
2013-11-19,39.2,35.2,28.9,25.4,22.9,19.4,85,61,49,30.39,30.09,10,2,16,0.00
2013-11-20,47.7,37.3,24.8,26.2,15.8,7.9,88,49,21,30.42,30.28,16,4,23,0.00
2013-11-21,46.2,41.6,38.5,42.2,29.6,10.1,90,66,29,30.35,30.18,13,5,24,0.04
2013-11-22,48.4,43.5,35.8,48.1,41.4,25.6,99,93,66,30.31,30.12,10,2,14,0.25
2013-11-23,35.6,29.9,20.5,27.4,17.0,-2.6,89,59,34,30.37,30.19,14,4,21,0.01
2013-11-24,23.4,21.6,20.1,12.8,5.9,-2.6,69,50,34,30.50,30.37,11,4,24,0.00
2013-11-25,34.7,26.4,18.5,21.8,9.2,1.8,72,49,28,30.42,30.13,15,4,28,0.00
2013-11-26,34.9,32.5,30.7,31.8,26.2,13.9,99,79,43,30.14,29.82,9,1,14,0.00
2013-11-27,33.8,28.0,24.3,30.6,18.3,9.6,92,68,51,30.11,29.78,11,3,19,0.00
2013-11-28,28.9,25.2,20.8,19.0,13.0,8.9,85,60,47,30.38,30.11,8,2,16,0.00
2013-11-29,33.6,28.9,25.2,23.7,18.2,13.8,76,64,56,30.61,30.38,6,0,11,0.00
2013-11-30,41.2,32.8,27.3,24.4,19.5,13.5,66,58,50,30.56,30.14,14,5,21,0.02
2013-12-1,43.2,37.7,33.8,29.8,27.3,24.0,79,66,57,30.14,29.95,8,2,11,0.01
2013-12-2,40.6,36.6,33.4,35.1,30.9,28.0,92,80,69,29.95,29.86,4,0,7,0.00
2013-12-3,48.7,41.1,32.7,39.8,32.6,24.4,81,72,64,29.90,29.83,9,2,13,0.00
2013-12-4,58.8,52.0,44.8,48.2,43.1,37.7,78,72,65,29.93,29.75,14,5,24,0.00
2013-12-5,61.3,49.2,32.2,55.4,42.7,28.1,96,78,67,30.11,29.73,19,4,24,0.00
2013-12-6,35.2,31.0,26.1,31.8,25.0,18.9,99,79,58,30.30,30.08,4,1,8,0.01
2013-12-7,28.4,24.6,22.6,22.1,12.8,8.9,77,60,52,30.55,30.30,8,2,12,0.00
2013-12-8,28.6,24.9,20.7,25.5,13.1,9.4,88,61,48,30.54,29.99,13,2,22,0.00
2013-12-9,34.5,30.6,24.8,32.8,24.2,13.3,99,78,61,30.12,29.89,11,4,20,0.01
2013-12-10,28.9,23.6,20.3,13.5,5.0,-8.0,63,46,21,30.21,29.95,13,3,27,0.00
2013-12-11,24.8,20.5,16.9,19.2,10.3,1.7,89,65,47,30.37,30.19,10,2,17,0.00
2013-12-12,19.8,16.1,10.2,3.7,-4.3,-13.9,67,41,22,30.40,30.18,11,3,19,0.00
2013-12-13,31.5,23.7,17.2,15.4,7.7,-4.5,64,50,37,30.24,30.14,8,1,15,0.00
2013-12-14,33.4,28.5,24.3,32.2,24.9,13.4,99,87,57,30.22,29.64,8,1,14,0.00
2013-12-15,32.0,22.5,14.5,31.8,17.0,5.0,99,80,64,30.01,29.65,8,2,14,0.00
2013-12-16,26.4,18.1,12.6,17.6,7.3,3.9,87,62,50,30.14,29.96,9,2,14,0.00
2013-12-17,29.7,24.9,20.8,24.4,19.0,15.1,92,79,62,30.01,29.88,11,3,17,0.00
2013-12-18,31.1,26.0,23.9,20.3,16.8,11.0,81,68,49,30.11,29.93,14,4,26,0.00
2013-12-19,48.4,40.1,30.7,33.4,25.0,12.7,66,55,41,29.99,29.90,13,4,23,0.06
2013-12-20,55.4,47.7,43.2,53.7,42.9,32.1,99,85,56,29.92,29.78,15,6,24,0.19
2013-12-21,57.6,46.2,36.9,56.1,45.4,35.9,99,97,90,29.83,29.48,15,2,23,1.84
2013-12-22,62.2,46.8,35.4,57.3,44.6,34.8,99,92,70,29.97,29.43,21,4,34,0.35
2013-12-23,38.8,32.7,27.1,38.6,26.4,11.9,99,78,52,30.28,29.97,11,2,17,0.02
2013-12-24,27.1,19.1,14.7,19.1,9.4,1.5,83,66,46,30.49,30.24,11,2,17,0.00
2013-12-25,27.1,21.2,14.7,18.3,8.9,4.0,73,59,42,30.45,30.13,14,3,18,0.00
2013-12-26,35.2,27.9,24.6,27.3,18.0,11.3,95,67,51,30.30,30.04,11,2,19,0.00
2013-12-27,43.0,35.6,26.4,28.9,23.9,15.1,68,62,57,30.31,30.14,14,2,21,0.02
2013-12-28,54.5,45.3,39.2,32.1,28.7,25.8,64,53,34,30.15,29.96,14,4,24,0.00
2013-12-29,43.9,39.8,25.9,38.7,30.1,21.9,99,71,43,29.96,29.69,9,3,15,0.06
2013-12-30,26.2,20.6,18.0,24.1,14.9,8.5,93,78,66,30.23,29.92,5,1,11,0.00
2013-12-31,21.2,18.7,16.5,17.8,10.3,2.6,87,70,51,30.28,30.01,8,2,16,0.00
2014-1-1,26.2,20.9,18.7,16.8,15.1,13.9,87,78,65,30.30,30.10,4,0,7,0.00
2014-1-2,21.7,17.9,11.8,17.1,12.7,4.3,85,80,73,30.10,29.84,14,3,21,0.00